ADDS TAF Board (Experimental) INFO Settings
IDs: Format: Expanded Condensed

KJFK - New York/Kennedy Int, NY, US

Issued at 1741 UTC 25 Jun 2016
Updated at: 1929 UTC 25 Jun 2016
Time1851Z 25/20Z 25/21Z 25/22Z 25/23Z 26/00Z 26/01Z 26/02Z 26/03Z 26/04Z 26/05Z 26/06Z 26/07Z 26/08Z
Type OBS PRVL PRVL PRVL PRVL PRVL PRVL PRVL PRVL PRVL PRVL PRVL PRVL PRVL
VIS 10 >6 >6 >6 >6 >6 >6 >6 >6 >6 >6 >6 >6 >6
CIG -- -- -- -- -- -- -- -- -- -- -- -- -- --
Cover FEW FEW FEW FEW SKC SKC SKC SKC FEW FEW FEW FEW FEW FEW
FltCat VFR VFR VFR VFR VFR VFR VFR VFR VFR VFR VFR VFR VFR VFR
WX -- -- -- -- -- -- -- -- -- -- -- -- -- --
WDir 150 150 150 150 150 150 160 160 VRB VRB VRB VRB VRB VRB
WSpd 11 10 10 10 7 7 5 5 3 3 3 3 3 3
WGst 18 -- -- -- -- -- -- -- -- -- -- -- -- --
R04/22
XWnd -10 -9 -9 -9 -6 -6 -4 -4 VRB VRB VRB VRB VRB VRB
XGst -16 -- -- -- -- -- -- -- -- -- -- -- -- --
HWnd -5 -5 -5 -5 -3 -3 -3 -3 VRB VRB VRB VRB VRB VRB
HGst -9 -- -- -- -- -- -- -- -- -- -- -- -- --
R13/31
XWnd -5 -5 -5 -5 -3 -3 -3 -3 VRB VRB VRB VRB VRB VRB
XGst -9 -- -- -- -- -- -- -- -- -- -- -- -- --
HWnd 10 9 9 9 6 6 4 4 VRB VRB VRB VRB VRB VRB
HGst 16 -- -- -- -- -- -- -- -- -- -- -- -- --

NOTE: TEMPO conditions in [brackets]. Keep in mind TEMPO conditions might be better (lower impact) than prevailing conditions.

Raw TAF
KJFK 251741Z 2518/2624 15010KT P6SM FEW060
  FM252300 15007KT P6SM SKC
  FM260100 16005KT P6SM SKC
  FM260300 VRB03KT P6SM FEW070
  FM261200 19005KT P6SM SKC
  FM261600 19009KT P6SM SKC
  FM261900 18012KT P6SM SKC


Raw METAR
KJFK 251851Z 15011G18KT 10SM FEW065 27/10 A3020 RMK AO2 SLP225 T02670100
KJFK 251751Z 14009KT 10SM SCT065 27/11 A3021 RMK AO2 SLP230 T02670106 10272 20222 51005
KJFK 251651Z 15009KT 10SM SCT065 27/12 A3021 RMK AO2 SLP228 T02670122

METAR Board
Radar Display
Forecast Discussion

TAF Board Legend

Potential Impact
Threat None Slight Moderate High
Visibility (sm) ≥5.1 5.1>X≥3 3>X≥1 <1
Ceiling (100 ft) ≥30.1 30.1>X≥10 10>X≥5 <5
Wind Speed (kt) <10 10≤X<20 20≤X<30 ≥30
Wind Gust (kt) <15 15≤X<25 25≤X<35 ≥35
Weather No Wx Reported VCTS,-TS,-FZRA,SN TS,FZRA +TS,+FZRA,+SN